RJTQ(METAR)
12/16 16:00
RJTQ 160700Z 28014KT 8000 RA FEW013 BKN017 BKN024 12/10 Q1011 RMK
A2988=
戻る
トップページへ戻る
IMOC Co,.Ltd.